Luminous Kobe-2 — JJ3868 — position and weather

sailwx.info

Track history (hours):
 
Tides and Currents Weather Stations Pressure Air Temp Water Temp Dewpoint Dewpoint Depression Visibility Wind Speed Wind Dir Waves Ship Positions

Luminous Kobe-2

Last reported at 2015-Mar-30 15:31 UTC. Time now 2015-Mar-30 16:17 UTC.
Position N 34°41' E 135°11'.

Length 105 m; draft 4.5 m.

Type: Passenger vessel. MMSI: 431000469.

Date/timePositionNaut miles runAvg speedWind from/ knotsBaromVisibWave heightAir tempDewpointWater temp
2015-Mar-30 15:31N 34°41' E 135°11'0 0.0
2015-Mar-30 14:31N 34°41' E 135°11'0 0.0
2015-Mar-30 13:31N 34°41' E 135°11'0 0.0
2015-Mar-30 12:31N 34°41' E 135°11'7 6.8
2015-Mar-30 11:33N 34°36' E 135°06'1 1.1
2015-Mar-30 10:33N 34°37' E 135°06'6 5.3
2015-Mar-30 09:29N 34°41' E 135°11'0 0.0
2015-Mar-30 08:31N 34°41' E 135°11'4 4.6
2015-Mar-30 07:33N 34°38' E 135°07'4 4.4
2015-Mar-30 06:32N 34°41' E 135°11'0 0.0
2015-Mar-30 05:32N 34°41' E 135°11'2 2.0
2015-Mar-30 04:33N 34°39' E 135°11'2 2.0
2015-Mar-30 03:33N 34°37' E 135°13'4 3.7
2015-Mar-30 02:33N 34°41' E 135°11'0 0.0
2015-Mar-30 01:29N 34°41' E 135°11'0 0.0
2015-Mar-30 00:29N 34°41' E 135°11'0 0.0
2015-Mar-29 23:29N 34°41' E 135°11'0 0.0
2015-Mar-29 22:29N 34°41' E 135°11'0 0.0
2015-Mar-29 21:29N 34°41' E 135°11'0 0.0
2015-Mar-29 20:29N 34°41' E 135°11'0 0.0
2015-Mar-29 19:23N 34°41' E 135°11'0 0.0
2015-Mar-29 18:29N 34°41' E 135°11'0 0.0
2015-Mar-29 17:29N 34°41' E 135°11'0 0.0
2015-Mar-29 16:29N 34°41' E 135°11'0 0.0
2015-Mar-29 15:23N 34°41' E 135°11'0 0.0
2015-Mar-29 14:29N 34°41' E 135°11'0 0.0
2015-Mar-29 13:29N 34°41' E 135°11'0 0.0
2015-Mar-29 12:30N 34°41' E 135°11'6 6.6
2015-Mar-29 11:33N 34°36' E 135°07'1 1.0
2015-Mar-29 10:33N 34°36' E 135°06'6 5.8
2015-Mar-29 09:28N 34°41' E 135°11'2 2.2
2015-Mar-29 08:33N 34°39' E 135°11'2 2.1
2015-Mar-29 07:33N 34°37' E 135°13'4 2.9
2015-Mar-29 06:17N 34°41' E 135°11'0 0.0
2015-Mar-29 05:23N 34°41' E 135°11'2 2.6
2015-Mar-29 04:34N 34°39' E 135°11'2 1.7
2015-Mar-29 03:31N 34°38' E 135°13'4 3.4
2015-Mar-29 02:30N 34°41' E 135°11'0 0.0
2015-Mar-29 01:30N 34°41' E 135°11'0 0.0
2015-Mar-29 00:30N 34°41' E 135°11'0 0.0
2015-Mar-28 23:30N 34°41' E 135°11'0 0.0
2015-Mar-28 22:18N 34°41' E 135°11'0 0.0
2015-Mar-28 21:30N 34°41' E 135°11'0 0.0
2015-Mar-28 20:30N 34°41' E 135°11'0 0.0
2015-Mar-28 19:30N 34°41' E 135°11'0 0.0
2015-Mar-28 18:30N 34°41' E 135°11'0 0.0
2015-Mar-28 17:30N 34°41' E 135°11'0 0.0
2015-Mar-28 16:30N 34°41' E 135°11'0 0.0
2015-Mar-28 15:24N 34°41' E 135°11'0 0.0
2015-Mar-28 14:24N 34°41' E 135°11'0 0.0
2015-Mar-28 13:30N 34°41' E 135°11'0 0.0
2015-Mar-28 12:30N 34°41' E 135°11'6 6.4
2015-Mar-28 11:33N 34°36' E 135°07'1 1.1
2015-Mar-28 10:33N 34°37' E 135°06'6 5.8
2015-Mar-28 09:32N 34°41' E 135°11'1 1.5
2015-Mar-28 08:33N 34°39' E 135°11'3 2.7
2015-Mar-28 07:34N 34°37' E 135°13'4 3.9
2015-Mar-28 06:32N 34°41' E 135°11'0 0.0
2015-Mar-28 05:32N 34°41' E 135°11'2 2.0
2015-Mar-28 04:33N 34°39' E 135°11'1 1.4
2015-Mar-28 03:33N 34°38' E 135°12'3 3.2
2015-Mar-28 02:32N 34°41' E 135°11'0 0.0
2015-Mar-28 01:30N 34°41' E 135°11'0 0.0
2015-Mar-28 00:30N 34°41' E 135°11'0 0.0
2015-Mar-27 23:24N 34°41' E 135°11'0 0.0
2015-Mar-27 22:30N 34°41' E 135°11'0 0.0
2015-Mar-27 21:30N 34°41' E 135°11'0 0.0
2015-Mar-27 20:30N 34°41' E 135°11'0 0.0
2015-Mar-27 19:24N 34°41' E 135°11'0 0.0
2015-Mar-27 18:24N 34°41' E 135°11'0 0.0
2015-Mar-27 17:30N 34°41' E 135°11'0 0.0
2015-Mar-27 16:30N 34°41' E 135°11'0 0.0
2015-Mar-27 15:30N 34°41' E 135°11'0 0.0
2015-Mar-27 14:30N 34°41' E 135°11'0 0.0
2015-Mar-27 13:30N 34°41' E 135°11'0 0.0
2015-Mar-27 12:27N 34°41' E 135°11'7 7.3
2015-Mar-27 11:33N 34°36' E 135°06'1 0.8
2015-Mar-27 10:33N 34°36' E 135°07'6 5.7
2015-Mar-27 09:32N 34°41' E 135°11'0 0.0
2015-Mar-27 08:32N 34°41' E 135°11'4 4.6
2015-Mar-27 07:34N 34°38' E 135°07'4 4.3
2015-Mar-27 06:31N 34°41' E 135°11'0 0.0
2015-Mar-27 05:31N 34°41' E 135°11'2 2.2
2015-Mar-27 04:33N 34°39' E 135°11'2 2.0
2015-Mar-27 03:33N 34°37' E 135°13'4 3.1
2015-Mar-27 02:24N 34°41' E 135°11'0 0.0
2015-Mar-27 01:29N 34°41' E 135°11'0 0.0
2015-Mar-27 00:23N 34°41' E 135°11'0 0.0
2015-Mar-26 23:29N 34°41' E 135°11'0 0.0
2015-Mar-26 22:29N 34°41' E 135°11'0 0.0
2015-Mar-26 21:30N 34°41' E 135°11'0 0.0
2015-Mar-26 20:29N 34°41' E 135°11'0 0.0
2015-Mar-26 19:29N 34°41' E 135°11'0 0.0
2015-Mar-26 18:29N 34°41' E 135°11'0 0.0
2015-Mar-26 17:23N 34°41' E 135°11'0 0.0
2015-Mar-26 16:29N 34°41' E 135°11'0 0.0
2015-Mar-26 15:29N 34°41' E 135°11'0 0.0
2015-Mar-26 14:29N 34°41' E 135°11'0 0.0
2015-Mar-26 13:29N 34°41' E 135°11'0 0.0
2015-Mar-26 12:29N 34°41' E 135°11'7 7.0
2015-Mar-26 11:34N 34°35' E 135°07'2 1.6
2015-Mar-26 10:33N 34°37' E 135°07'5 5.1
2015-Mar-26 09:33N 34°41' E 135°11'0 0.0
2015-Mar-26 08:33N 34°41' E 135°11'4 4.5
2015-Mar-26 07:33N 34°38' E 135°07'4 4.4
2015-Mar-26 06:33N 34°41' E 135°11'0 0.0
2015-Mar-26 05:33N 34°41' E 135°11'2 2.1
2015-Mar-26 04:33N 34°39' E 135°11'2 1.8
2015-Mar-26 03:33N 34°37' E 135°13'4 3.5
2015-Mar-26 02:33N 34°41' E 135°11'0 0.0
2015-Mar-26 01:32N 34°41' E 135°11'0 0.0
2015-Mar-26 00:32N 34°41' E 135°11'0 0.0
2015-Mar-25 23:32N 34°41' E 135°11'0 0.0
2015-Mar-25 22:32N 34°41' E 135°11'0 0.0
2015-Mar-25 21:32N 34°41' E 135°11'0 0.0
2015-Mar-25 20:32N 34°41' E 135°11'0 0.0
2015-Mar-25 19:32N 34°41' E 135°11'0 0.0
2015-Mar-25 18:32N 34°41' E 135°11'0 0.0
2015-Mar-25 17:26N 34°41' E 135°11'0 0.0
2015-Mar-25 16:32N 34°41' E 135°11'0 0.0
2015-Mar-25 15:32N 34°41' E 135°11'0 0.0
2015-Mar-25 14:32N 34°41' E 135°11'0 0.0
2015-Mar-25 13:32N 34°41' E 135°11'0 0.0
2015-Mar-25 12:28N 34°41' E 135°11'6 6.5
2015-Mar-25 11:33N 34°36' E 135°08'2 1.6
2015-Mar-25 10:33N 34°37' E 135°06'6 5.2
2015-Mar-25 09:25N 34°41' E 135°11'0 0.0
2015-Mar-25 08:30N 34°41' E 135°11'4 4.6
2015-Mar-25 07:33N 34°38' E 135°08'4 4.4
2015-Mar-25 06:33N 34°41' E 135°11'0 0.0
2015-Mar-25 05:27N 34°41' E 135°11'2 2.3
2015-Mar-25 04:33N 34°39' E 135°11'2 2.2
2015-Mar-25 03:33N 34°37' E 135°13'4 3.7
2015-Mar-25 02:32N 34°41' E 135°11'0 0.0
2015-Mar-25 01:32N 34°41' E 135°11'0 0.0
2015-Mar-25 00:32N 34°41' E 135°11'0 0.0
2015-Mar-24 23:32N 34°41' E 135°11'0 0.0
2015-Mar-24 22:26N 34°41' E 135°11'0 0.0
2015-Mar-24 21:32N 34°41' E 135°11'0 0.0
2015-Mar-24 20:32N 34°41' E 135°11'0 0.0
2015-Mar-24 19:32N 34°41' E 135°11'0 0.0
2015-Mar-24 18:32N 34°41' E 135°11'0 0.0
2015-Mar-24 17:32N 34°41' E 135°11'0 0.0
2015-Mar-24 16:32N 34°41' E 135°11'0 0.0
2015-Mar-24 15:32N 34°41' E 135°11'0 0.0
2015-Mar-24 14:32N 34°41' E 135°11'0 0.0
2015-Mar-24 13:32N 34°41' E 135°11'0 0.0
2015-Mar-24 12:32N 34°41' E 135°11'6 5.9
2015-Mar-24 11:33N 34°36' E 135°07'1 1.3
2015-Mar-24 10:33N 34°37' E 135°06'6 5.4
2015-Mar-24 09:24N 34°41' E 135°11'0 0.0
2015-Mar-24 08:31N 34°41' E 135°11'5 4.9
2015-Mar-24 07:34N 34°38' E 135°07'5 3.9
2015-Mar-24 06:22N 34°41' E 135°11'0 0.0
2015-Mar-24 05:28N 34°41' E 135°11'2 1.8
2015-Mar-24 04:33N 34°39' E 135°11'2 2.4
2015-Mar-24 03:33N 34°37' E 135°13'4 3.9
2015-Mar-24 02:33N 34°41' E 135°11'0 0.0
2015-Mar-24 01:31N 34°41' E 135°11'0 0.0
2015-Mar-24 00:31N 34°41' E 135°11'0 0.0
2015-Mar-23 23:19N 34°41' E 135°11'0 0.0
2015-Mar-23 22:31N 34°41' E 135°11'0 0.0
2015-Mar-23 21:31N 34°41' E 135°11'0 0.0
2015-Mar-23 20:19N 34°41' E 135°11'0 0.0
2015-Mar-23 19:31N 34°41' E 135°11'0 0.0
2015-Mar-23 18:31N 34°41' E 135°11'0 0.0
2015-Mar-23 17:31N 34°41' E 135°11'0 0.0
2015-Mar-23 16:31N 34°41' E 135°11'0 0.0
2015-Mar-23 15:31N 34°41' E 135°11'0 0.0
2015-Mar-23 14:31N 34°41' E 135°11'0 0.0
2015-Mar-23 13:31N 34°41' E 135°11'0 0.0
2015-Mar-23 12:31N 34°41' E 135°11'6 6.0
2015-Mar-23 11:33N 34°36' E 135°07'1 1.2
2015-Mar-23 10:33N 34°36' E 135°06'6 6.2
2015-Mar-23 09:33N 34°41' E 135°11'0 0.0
2015-Mar-23 08:31N 34°41' E 135°11'4 4.2
2015-Mar-23 07:33N 34°38' E 135°08'4 3.8
2015-Mar-23 06:30N 34°41' E 135°11'0 0.0
2015-Mar-23 05:30N 34°41' E 135°11'2 2.1
2015-Mar-23 04:33N 34°39' E 135°11'2 2.4
2015-Mar-23 03:33N 34°37' E 135°13'4 3.7
2015-Mar-23 02:28N 34°41' E 135°11'0 0.0
2015-Mar-23 01:28N 34°41' E 135°11'0 0.0
2015-Mar-23 00:28N 34°41' E 135°11'0 0.0
2015-Mar-22 23:28N 34°41' E 135°11'0 0.0
2015-Mar-22 22:28N 34°41' E 135°11'0 0.0
2015-Mar-22 21:22N 34°41' E 135°11'0 0.0
2015-Mar-22 20:28N 34°41' E 135°11'0 0.0
2015-Mar-22 19:28N 34°41' E 135°11'0 0.0
2015-Mar-22 18:22N 34°41' E 135°11'0 0.0
2015-Mar-22 17:28N 34°41' E 135°11'0 0.0
2015-Mar-22 16:28N 34°41' E 135°11'0 0.0
2015-Mar-22 15:28N 34°41' E 135°11'0 0.0
2015-Mar-22 14:28N 34°41' E 135°11'0 0.0
2015-Mar-22 13:16N 34°41' E 135°11'0 0.0
2015-Mar-22 12:30N 34°41' E 135°11'6 6.8
2015-Mar-22 11:33N 34°36' E 135°07'1 1.2
2015-Mar-22 10:34N 34°37' E 135°06'6 5.9
2015-Mar-22 09:33N 34°41' E 135°11'2 1.8
2015-Mar-22 08:33N 34°39' E 135°11'2 2.4
2015-Mar-22 07:33N 34°37' E 135°13'4 3.9
2015-Mar-22 06:33N 34°41' E 135°11'0 0.0
2015-Mar-22 05:33N 34°41' E 135°11'2 2.0
2015-Mar-22 04:33N 34°39' E 135°11'2 2.4
2015-Mar-22 03:33N 34°37' E 135°13'4 3.9
2015-Mar-22 02:33N 34°41' E 135°11'0 0.0
2015-Mar-22 01:18N 34°41' E 135°11'0 0.0
2015-Mar-22 00:30N 34°41' E 135°11'0 0.0
2015-Mar-21 23:18N 34°41' E 135°11'0 0.0
2015-Mar-21 22:30N 34°41' E 135°11'0 0.0
2015-Mar-21 21:30N 34°41' E 135°11'0 0.0
2015-Mar-21 20:30N 34°41' E 135°11'0 0.0
2015-Mar-21 19:30N 34°41' E 135°11'0 0.0
2015-Mar-21 18:30N 34°41' E 135°11'0 0.0
2015-Mar-21 17:30N 34°41' E 135°11'0 0.0
2015-Mar-21 16:30N 34°41' E 135°11'0 0.0
2015-Mar-21 15:30N 34°41' E 135°11'0 0.0
2015-Mar-21 14:30N 34°41' E 135°11'0 0.0
2015-Mar-21 13:30N 34°41' E 135°11'0 0.0
2015-Mar-21 12:26N 34°41' E 135°11'6 6.9
2015-Mar-21 11:33N 34°36' E 135°07'1 0.8
2015-Mar-21 10:33N 34°37' E 135°06'6 6.0
2015-Mar-21 09:34N 34°41' E 135°11'2 2.0
2015-Mar-21 08:33N 34°39' E 135°11'2 2.2
2015-Mar-21 07:33N 34°37' E 135°13'4 3.2
2015-Mar-21 06:24N 34°41' E 135°11'0 0.0
2015-Mar-21 05:30N 34°41' E 135°11'2 1.9
2015-Mar-21 04:33N 34°39' E 135°11'2 2.4
2015-Mar-21 03:33N 34°37' E 135°13'4 3.6
2015-Mar-21 02:30N 34°41' E 135°11'0 0.0
2015-Mar-21 01:30N 34°41' E 135°11'0 0.0
2015-Mar-21 00:24N 34°41' E 135°11'0 0.0
2015-Mar-20 23:30N 34°41' E 135°11'0 0.0
2015-Mar-20 22:30N 34°41' E 135°11'0 0.0
2015-Mar-20 21:30N 34°41' E 135°11'0 0.0
2015-Mar-20 20:30N 34°41' E 135°11'0 0.0
2015-Mar-20 19:30N 34°41' E 135°11'0 0.0
2015-Mar-20 18:30N 34°41' E 135°11'0 0.0
2015-Mar-20 17:30N 34°41' E 135°11'0 0.0
2015-Mar-20 16:30N 34°41' E 135°11'  
Track history (hours):
 
Tides and Currents Weather Stations Pressure Air Temp Water Temp Dewpoint Dewpoint Depression Visibility Wind Speed Wind Dir Waves Ship Positions

Luminous Kobe-2

Last reported at 2015-Mar-30 15:31 UTC. Time now 2015-Mar-30 16:17 UTC.
Position N 34°41' E 135°11'.

Length 105 m; draft 4.5 m.

Type: Passenger vessel. MMSI: 431000469.

Date/timePositionNaut miles runAvg speedWind from/ knotsBaromVisibWave heightAir tempDewpointWater temp
2015-Mar-30 15:31N 34°41' E 135°11'0 0.0
2015-Mar-30 14:31N 34°41' E 135°11'0 0.0
2015-Mar-30 13:31N 34°41' E 135°11'0 0.0
2015-Mar-30 12:31N 34°41' E 135°11'7 6.8
2015-Mar-30 11:33N 34°36' E 135°06'1 1.1
2015-Mar-30 10:33N 34°37' E 135°06'6 5.3
2015-Mar-30 09:29N 34°41' E 135°11'0 0.0
2015-Mar-30 08:31N 34°41' E 135°11'4 4.6
2015-Mar-30 07:33N 34°38' E 135°07'4 4.4
2015-Mar-30 06:32N 34°41' E 135°11'0 0.0
2015-Mar-30 05:32N 34°41' E 135°11'2 2.0
2015-Mar-30 04:33N 34°39' E 135°11'2 2.0
2015-Mar-30 03:33N 34°37' E 135°13'4 3.7
2015-Mar-30 02:33N 34°41' E 135°11'0 0.0
2015-Mar-30 01:29N 34°41' E 135°11'0 0.0
2015-Mar-30 00:29N 34°41' E 135°11'0 0.0
2015-Mar-29 23:29N 34°41' E 135°11'0 0.0
2015-Mar-29 22:29N 34°41' E 135°11'0 0.0
2015-Mar-29 21:29N 34°41' E 135°11'0 0.0
2015-Mar-29 20:29N 34°41' E 135°11'0 0.0
2015-Mar-29 19:23N 34°41' E 135°11'0 0.0
2015-Mar-29 18:29N 34°41' E 135°11'0 0.0
2015-Mar-29 17:29N 34°41' E 135°11'0 0.0
2015-Mar-29 16:29N 34°41' E 135°11'0 0.0
2015-Mar-29 15:23N 34°41' E 135°11'0 0.0
2015-Mar-29 14:29N 34°41' E 135°11'0 0.0
2015-Mar-29 13:29N 34°41' E 135°11'0 0.0
2015-Mar-29 12:30N 34°41' E 135°11'6 6.6
2015-Mar-29 11:33N 34°36' E 135°07'1 1.0
2015-Mar-29 10:33N 34°36' E 135°06'6 5.8
2015-Mar-29 09:28N 34°41' E 135°11'2 2.2
2015-Mar-29 08:33N 34°39' E 135°11'2 2.1
2015-Mar-29 07:33N 34°37' E 135°13'4 2.9
2015-Mar-29 06:17N 34°41' E 135°11'0 0.0
2015-Mar-29 05:23N 34°41' E 135°11'2 2.6
2015-Mar-29 04:34N 34°39' E 135°11'2 1.7
2015-Mar-29 03:31N 34°38' E 135°13'4 3.4
2015-Mar-29 02:30N 34°41' E 135°11'0 0.0
2015-Mar-29 01:30N 34°41' E 135°11'0 0.0
2015-Mar-29 00:30N 34°41' E 135°11'0 0.0
2015-Mar-28 23:30N 34°41' E 135°11'0 0.0
2015-Mar-28 22:18N 34°41' E 135°11'0 0.0
2015-Mar-28 21:30N 34°41' E 135°11'0 0.0
2015-Mar-28 20:30N 34°41' E 135°11'0 0.0
2015-Mar-28 19:30N 34°41' E 135°11'0 0.0
2015-Mar-28 18:30N 34°41' E 135°11'0 0.0
2015-Mar-28 17:30N 34°41' E 135°11'0 0.0
2015-Mar-28 16:30N 34°41' E 135°11'0 0.0
2015-Mar-28 15:24N 34°41' E 135°11'0 0.0
2015-Mar-28 14:24N 34°41' E 135°11'0 0.0
2015-Mar-28 13:30N 34°41' E 135°11'0 0.0
2015-Mar-28 12:30N 34°41' E 135°11'6 6.4
2015-Mar-28 11:33N 34°36' E 135°07'1 1.1
2015-Mar-28 10:33N 34°37' E 135°06'6 5.8
2015-Mar-28 09:32N 34°41' E 135°11'1 1.5
2015-Mar-28 08:33N 34°39' E 135°11'3 2.7
2015-Mar-28 07:34N 34°37' E 135°13'4 3.9
2015-Mar-28 06:32N 34°41' E 135°11'0 0.0
2015-Mar-28 05:32N 34°41' E 135°11'2 2.0
2015-Mar-28 04:33N 34°39' E 135°11'1 1.4
2015-Mar-28 03:33N 34°38' E 135°12'3 3.2
2015-Mar-28 02:32N 34°41' E 135°11'0 0.0
2015-Mar-28 01:30N 34°41' E 135°11'0 0.0
2015-Mar-28 00:30N 34°41' E 135°11'0 0.0
2015-Mar-27 23:24N 34°41' E 135°11'0 0.0
2015-Mar-27 22:30N 34°41' E 135°11'0 0.0
2015-Mar-27 21:30N 34°41' E 135°11'0 0.0
2015-Mar-27 20:30N 34°41' E 135°11'0 0.0
2015-Mar-27 19:24N 34°41' E 135°11'0 0.0
2015-Mar-27 18:24N 34°41' E 135°11'0 0.0
2015-Mar-27 17:30N 34°41' E 135°11'0 0.0
2015-Mar-27 16:30N 34°41' E 135°11'0 0.0
2015-Mar-27 15:30N 34°41' E 135°11'0 0.0
2015-Mar-27 14:30N 34°41' E 135°11'0 0.0
2015-Mar-27 13:30N 34°41' E 135°11'0 0.0
2015-Mar-27 12:27N 34°41' E 135°11'7 7.3
2015-Mar-27 11:33N 34°36' E 135°06'1 0.8
2015-Mar-27 10:33N 34°36' E 135°07'6 5.7
2015-Mar-27 09:32N 34°41' E 135°11'0 0.0
2015-Mar-27 08:32N 34°41' E 135°11'4 4.6
2015-Mar-27 07:34N 34°38' E 135°07'4 4.3
2015-Mar-27 06:31N 34°41' E 135°11'0 0.0
2015-Mar-27 05:31N 34°41' E 135°11'2 2.2
2015-Mar-27 04:33N 34°39' E 135°11'2 2.0
2015-Mar-27 03:33N 34°37' E 135°13'4 3.1
2015-Mar-27 02:24N 34°41' E 135°11'0 0.0
2015-Mar-27 01:29N 34°41' E 135°11'0 0.0
2015-Mar-27 00:23N 34°41' E 135°11'0 0.0
2015-Mar-26 23:29N 34°41' E 135°11'0 0.0
2015-Mar-26 22:29N 34°41' E 135°11'0 0.0
2015-Mar-26 21:30N 34°41' E 135°11'0 0.0
2015-Mar-26 20:29N 34°41' E 135°11'0 0.0
2015-Mar-26 19:29N 34°41' E 135°11'0 0.0
2015-Mar-26 18:29N 34°41' E 135°11'0 0.0
2015-Mar-26 17:23N 34°41' E 135°11'0 0.0
2015-Mar-26 16:29N 34°41' E 135°11'0 0.0
2015-Mar-26 15:29N 34°41' E 135°11'0 0.0
2015-Mar-26 14:29N 34°41' E 135°11'0 0.0
2015-Mar-26 13:29N 34°41' E 135°11'0 0.0
2015-Mar-26 12:29N 34°41' E 135°11'7 7.0
2015-Mar-26 11:34N 34°35' E 135°07'2 1.6
2015-Mar-26 10:33N 34°37' E 135°07'5 5.1
2015-Mar-26 09:33N 34°41' E 135°11'0 0.0
2015-Mar-26 08:33N 34°41' E 135°11'4 4.5
2015-Mar-26 07:33N 34°38' E 135°07'4 4.4
2015-Mar-26 06:33N 34°41' E 135°11'0 0.0
2015-Mar-26 05:33N 34°41' E 135°11'2 2.1
2015-Mar-26 04:33N 34°39' E 135°11'2 1.8
2015-Mar-26 03:33N 34°37' E 135°13'4 3.5
2015-Mar-26 02:33N 34°41' E 135°11'0 0.0
2015-Mar-26 01:32N 34°41' E 135°11'0 0.0
2015-Mar-26 00:32N 34°41' E 135°11'0 0.0
2015-Mar-25 23:32N 34°41' E 135°11'0 0.0
2015-Mar-25 22:32N 34°41' E 135°11'0 0.0
2015-Mar-25 21:32N 34°41' E 135°11'0 0.0
2015-Mar-25 20:32N 34°41' E 135°11'0 0.0
2015-Mar-25 19:32N 34°41' E 135°11'0 0.0
2015-Mar-25 18:32N 34°41' E 135°11'0 0.0
2015-Mar-25 17:26N 34°41' E 135°11'0 0.0
2015-Mar-25 16:32N 34°41' E 135°11'0 0.0
2015-Mar-25 15:32N 34°41' E 135°11'0 0.0
2015-Mar-25 14:32N 34°41' E 135°11'0 0.0
2015-Mar-25 13:32N 34°41' E 135°11'0 0.0
2015-Mar-25 12:28N 34°41' E 135°11'6 6.5
2015-Mar-25 11:33N 34°36' E 135°08'2 1.6
2015-Mar-25 10:33N 34°37' E 135°06'6 5.2
2015-Mar-25 09:25N 34°41' E 135°11'0 0.0
2015-Mar-25 08:30N 34°41' E 135°11'4 4.6
2015-Mar-25 07:33N 34°38' E 135°08'4 4.4
2015-Mar-25 06:33N 34°41' E 135°11'0 0.0
2015-Mar-25 05:27N 34°41' E 135°11'2 2.3
2015-Mar-25 04:33N 34°39' E 135°11'2 2.2
2015-Mar-25 03:33N 34°37' E 135°13'4 3.7
2015-Mar-25 02:32N 34°41' E 135°11'0 0.0
2015-Mar-25 01:32N 34°41' E 135°11'0 0.0
2015-Mar-25 00:32N 34°41' E 135°11'0 0.0
2015-Mar-24 23:32N 34°41' E 135°11'0 0.0
2015-Mar-24 22:26N 34°41' E 135°11'0 0.0
2015-Mar-24 21:32N 34°41' E 135°11'0 0.0
2015-Mar-24 20:32N 34°41' E 135°11'0 0.0
2015-Mar-24 19:32N 34°41' E 135°11'0 0.0
2015-Mar-24 18:32N 34°41' E 135°11'0 0.0
2015-Mar-24 17:32N 34°41' E 135°11'0 0.0
2015-Mar-24 16:32N 34°41' E 135°11'0 0.0
2015-Mar-24 15:32N 34°41' E 135°11'0 0.0
2015-Mar-24 14:32N 34°41' E 135°11'0 0.0
2015-Mar-24 13:32N 34°41' E 135°11'0 0.0
2015-Mar-24 12:32N 34°41' E 135°11'6 5.9
2015-Mar-24 11:33N 34°36' E 135°07'1 1.3
2015-Mar-24 10:33N 34°37' E 135°06'6 5.4
2015-Mar-24 09:24N 34°41' E 135°11'0 0.0
2015-Mar-24 08:31N 34°41' E 135°11'5 4.9
2015-Mar-24 07:34N 34°38' E 135°07'5 3.9
2015-Mar-24 06:22N 34°41' E 135°11'0 0.0
2015-Mar-24 05:28N 34°41' E 135°11'2 1.8
2015-Mar-24 04:33N 34°39' E 135°11'2 2.4
2015-Mar-24 03:33N 34°37' E 135°13'4 3.9
2015-Mar-24 02:33N 34°41' E 135°11'0 0.0
2015-Mar-24 01:31N 34°41' E 135°11'0 0.0
2015-Mar-24 00:31N 34°41' E 135°11'0 0.0
2015-Mar-23 23:19N 34°41' E 135°11'0 0.0
2015-Mar-23 22:31N 34°41' E 135°11'0 0.0
2015-Mar-23 21:31N 34°41' E 135°11'0 0.0
2015-Mar-23 20:19N 34°41' E 135°11'0 0.0
2015-Mar-23 19:31N 34°41' E 135°11'0 0.0
2015-Mar-23 18:31N 34°41' E 135°11'0 0.0
2015-Mar-23 17:31N 34°41' E 135°11'0 0.0
2015-Mar-23 16:31N 34°41' E 135°11'0 0.0
2015-Mar-23 15:31N 34°41' E 135°11'0 0.0
2015-Mar-23 14:31N 34°41' E 135°11'0 0.0
2015-Mar-23 13:31N 34°41' E 135°11'0 0.0
2015-Mar-23 12:31N 34°41' E 135°11'6 6.0
2015-Mar-23 11:33N 34°36' E 135°07'1 1.2
2015-Mar-23 10:33N 34°36' E 135°06'6 6.2
2015-Mar-23 09:33N 34°41' E 135°11'0 0.0
2015-Mar-23 08:31N 34°41' E 135°11'4 4.2
2015-Mar-23 07:33N 34°38' E 135°08'4 3.8
2015-Mar-23 06:30N 34°41' E 135°11'0 0.0
2015-Mar-23 05:30N 34°41' E 135°11'2 2.1
2015-Mar-23 04:33N 34°39' E 135°11'2 2.4
2015-Mar-23 03:33N 34°37' E 135°13'4 3.7
2015-Mar-23 02:28N 34°41' E 135°11'0 0.0
2015-Mar-23 01:28N 34°41' E 135°11'0 0.0
2015-Mar-23 00:28N 34°41' E 135°11'0 0.0
2015-Mar-22 23:28N 34°41' E 135°11'0 0.0
2015-Mar-22 22:28N 34°41' E 135°11'0 0.0
2015-Mar-22 21:22N 34°41' E 135°11'0 0.0
2015-Mar-22 20:28N 34°41' E 135°11'0 0.0
2015-Mar-22 19:28N 34°41' E 135°11'0 0.0
2015-Mar-22 18:22N 34°41' E 135°11'0 0.0
2015-Mar-22 17:28N 34°41' E 135°11'0 0.0
2015-Mar-22 16:28N 34°41' E 135°11'0 0.0
2015-Mar-22 15:28N 34°41' E 135°11'0 0.0
2015-Mar-22 14:28N 34°41' E 135°11'0 0.0
2015-Mar-22 13:16N 34°41' E 135°11'0 0.0
2015-Mar-22 12:30N 34°41' E 135°11'6 6.8
2015-Mar-22 11:33N 34°36' E 135°07'1 1.2
2015-Mar-22 10:34N 34°37' E 135°06'6 5.9
2015-Mar-22 09:33N 34°41' E 135°11'2 1.8
2015-Mar-22 08:33N 34°39' E 135°11'2 2.4
2015-Mar-22 07:33N 34°37' E 135°13'4 3.9
2015-Mar-22 06:33N 34°41' E 135°11'0 0.0
2015-Mar-22 05:33N 34°41' E 135°11'2 2.0
2015-Mar-22 04:33N 34°39' E 135°11'2 2.4
2015-Mar-22 03:33N 34°37' E 135°13'4 3.9
2015-Mar-22 02:33N 34°41' E 135°11'0 0.0
2015-Mar-22 01:18N 34°41' E 135°11'0 0.0
2015-Mar-22 00:30N 34°41' E 135°11'0 0.0
2015-Mar-21 23:18N 34°41' E 135°11'0 0.0
2015-Mar-21 22:30N 34°41' E 135°11'0 0.0
2015-Mar-21 21:30N 34°41' E 135°11'0 0.0
2015-Mar-21 20:30N 34°41' E 135°11'0 0.0
2015-Mar-21 19:30N 34°41' E 135°11'0 0.0
2015-Mar-21 18:30N 34°41' E 135°11'0 0.0
2015-Mar-21 17:30N 34°41' E 135°11'0 0.0
2015-Mar-21 16:30N 34°41' E 135°11'0 0.0
2015-Mar-21 15:30N 34°41' E 135°11'0 0.0
2015-Mar-21 14:30N 34°41' E 135°11'0 0.0
2015-Mar-21 13:30N 34°41' E 135°11'0 0.0
2015-Mar-21 12:26N 34°41' E 135°11'6 6.9
2015-Mar-21 11:33N 34°36' E 135°07'1 0.8
2015-Mar-21 10:33N 34°37' E 135°06'6 6.0
2015-Mar-21 09:34N 34°41' E 135°11'2 2.0
2015-Mar-21 08:33N 34°39' E 135°11'2 2.2
2015-Mar-21 07:33N 34°37' E 135°13'4 3.2
2015-Mar-21 06:24N 34°41' E 135°11'0 0.0
2015-Mar-21 05:30N 34°41' E 135°11'2 1.9
2015-Mar-21 04:33N 34°39' E 135°11'2 2.4
2015-Mar-21 03:33N 34°37' E 135°13'4 3.6
2015-Mar-21 02:30N 34°41' E 135°11'0 0.0
2015-Mar-21 01:30N 34°41' E 135°11'0 0.0
2015-Mar-21 00:24N 34°41' E 135°11'0 0.0
2015-Mar-20 23:30N 34°41' E 135°11'0 0.0
2015-Mar-20 22:30N 34°41' E 135°11'0 0.0
2015-Mar-20 21:30N 34°41' E 135°11'0 0.0
2015-Mar-20 20:30N 34°41' E 135°11'0 0.0
2015-Mar-20 19:30N 34°41' E 135°11'0 0.0
2015-Mar-20 18:30N 34°41' E 135°11'0 0.0
2015-Mar-20 17:30N 34°41' E 135°11'0 0.0
2015-Mar-20 16:30N 34°41' E 135°11'  

Dump ship's entire track history